createdAt,value
2022-09-06T00:00:19.018Z,75693.84
2022-09-06T00:10:23.548Z,75693.84
2022-09-06T00:20:27.639Z,75693.84
2022-09-06T00:30:30.661Z,75706.00
2022-09-06T00:40:35.644Z,75706.00
2022-09-06T00:50:38.432Z,75706.00
2022-09-06T01:00:42.797Z,75718.13
2022-09-06T01:11:02.337Z,75730.28
2022-09-06T01:21:19.257Z,75734.31
2022-09-06T01:31:46.700Z,75750.53
2022-09-06T01:41:49.316Z,75748.50
2022-09-06T01:52:14.784Z,75736.34
2022-09-06T02:02:40.191Z,75726.22
2022-09-06T02:12:44.003Z,75738.38
2022-09-06T02:22:51.586Z,75754.56
2022-09-06T02:33:00.629Z,75770.75
2022-09-06T02:43:04.136Z,75782.91
2022-09-06T02:53:11.650Z,75784.91
2022-09-06T03:03:17.116Z,75778.84
2022-09-06T03:13:19.455Z,75782.91
2022-09-06T03:23:28.065Z,75780.88
2022-09-06T03:33:33.779Z,75770.75
2022-09-06T03:43:35.998Z,75762.66
2022-09-06T03:53:40.519Z,75752.53
2022-09-06T04:03:47.788Z,75738.38
2022-09-06T04:13:50.063Z,75681.72
2022-09-06T04:23:52.097Z,75627.06
2022-09-06T04:33:58.876Z,75584.56
2022-09-06T04:44:02.644Z,75487.44
2022-09-06T04:54:07.623Z,75442.91
2022-09-06T05:04:11.897Z,75364.00
2022-09-06T05:14:20.864Z,75333.63
2022-09-06T05:24:39.105Z,75222.34
2022-09-06T05:34:43.502Z,75163.66
2022-09-06T05:44:48.307Z,75135.31
2022-09-06T05:54:53.182Z,75058.44
2022-09-06T06:04:58.483Z,74971.44
2022-09-06T06:15:01.832Z,74961.31
2022-09-06T06:25:08.709Z,74941.06
2022-09-06T06:35:14.634Z,74975.47
2022-09-06T06:45:20.499Z,74916.78
2022-09-06T06:55:23.123Z,74937.03
2022-09-06T07:16:11.646Z,75009.88
2022-09-06T07:26:18.682Z,75042.25
2022-09-06T07:36:20.866Z,74898.59
2022-09-06T07:46:27.468Z,74825.75
2022-09-06T07:56:30.727Z,74742.78
2022-09-06T08:17:03.198Z,74678.03
2022-09-06T08:27:09.127Z,74748.84
2022-09-06T08:37:17.237Z,74718.50
2022-09-06T08:47:23.421Z,74718.50
2022-09-06T08:57:40.519Z,74763.03
2022-09-06T09:07:52.662Z,74740.75
2022-09-06T09:17:57.565Z,74835.84
2022-09-06T09:28:04.631Z,74823.72
2022-09-06T09:38:11.496Z,74718.50
2022-09-06T09:48:24.961Z,74823.72
2022-09-06T09:58:50.513Z,74746.84
2022-09-06T10:08:55.796Z,74795.38
2022-09-06T10:18:58.100Z,74767.06
2022-09-06T10:29:05.710Z,74763.03
2022-09-06T10:39:15.617Z,74758.97
2022-09-06T10:49:19.787Z,74746.84
2022-09-06T11:09:45.178Z,74734.69
2022-09-06T11:20:08.068Z,74722.56
2022-09-06T11:30:15.037Z,74722.56
2022-09-06T11:40:27.685Z,74736.72
2022-09-06T11:51:01.389Z,74710.41
2022-09-06T12:01:12.743Z,74690.19
2022-09-06T12:11:39.525Z,74655.78
2022-09-06T12:21:46.430Z,74678.03
2022-09-06T12:31:58.878Z,74611.28
2022-09-06T12:42:07.975Z,74621.38
2022-09-06T12:52:21.262Z,74595.09
2022-09-06T13:02:43.702Z,74601.16
2022-09-06T13:12:50.834Z,74584.97
2022-09-06T13:22:54.400Z,74568.78
2022-09-06T13:32:56.465Z,74566.75
2022-09-06T13:43:01.881Z,74544.50
2022-09-06T13:53:09.049Z,74540.47
2022-09-06T14:03:17.208Z,74552.59
2022-09-06T14:13:20.451Z,74544.50
2022-09-06T14:23:23.526Z,74540.47
2022-09-06T14:33:26.618Z,74532.38
2022-09-06T14:43:28.793Z,74540.47
2022-09-06T14:53:40.550Z,74538.44
2022-09-06T15:03:47.910Z,74540.47
2022-09-06T15:13:52.098Z,74554.63
2022-09-06T15:23:58.156Z,74548.56
2022-09-06T15:34:03.007Z,74560.69
2022-09-06T15:44:11.139Z,74558.66
2022-09-06T15:54:15.986Z,74564.75
2022-09-06T16:04:20.142Z,74560.69
2022-09-06T16:14:32.452Z,74566.75
2022-09-06T16:24:36.831Z,74568.78
2022-09-06T16:34:38.924Z,74587.00
2022-09-06T16:44:41.507Z,74597.09
2022-09-06T16:54:46.065Z,74619.38
2022-09-06T17:04:50.523Z,74645.66
2022-09-06T17:15:03.208Z,74669.94
2022-09-06T17:25:08.175Z,74680.06
2022-09-06T17:35:10.862Z,74706.38
2022-09-06T17:45:12.982Z,74726.59
2022-09-06T17:55:19.345Z,74734.69
2022-09-06T18:05:21.811Z,74754.94
2022-09-06T18:15:28.831Z,74758.97
2022-09-06T18:25:33.675Z,74787.28
2022-09-06T18:35:44.189Z,74819.66
2022-09-06T18:45:53.328Z,74843.94
2022-09-06T18:55:55.541Z,74864.19
2022-09-06T19:06:10.323Z,74870.25
2022-09-06T19:16:16.371Z,74884.41
2022-09-06T19:26:20.894Z,74904.66
2022-09-06T19:36:24.851Z,74924.88
2022-09-06T19:46:29.634Z,74932.97
2022-09-06T19:56:35.263Z,74941.06
2022-09-06T20:06:38.081Z,74969.41
2022-09-06T20:16:42.269Z,74987.63
2022-09-06T20:26:51.090Z,75013.91
2022-09-06T20:36:57.743Z,75034.16
2022-09-06T20:47:01.219Z,75040.22
2022-09-06T20:57:08.282Z,75038.19
2022-09-06T21:07:10.481Z,75054.38
2022-09-06T21:17:17.110Z,75048.31
2022-09-06T21:27:21.541Z,75070.56
2022-09-06T21:37:27.275Z,75109.03
2022-09-06T21:47:32.344Z,75135.31
2022-09-06T21:57:34.570Z,75149.50
2022-09-06T22:07:41.273Z,75163.66
2022-09-06T22:17:45.934Z,75179.84
2022-09-06T22:27:53.325Z,75196.03
2022-09-06T22:38:00.099Z,75212.22
2022-09-06T22:48:04.824Z,75220.31
2022-09-06T22:58:09.923Z,75218.28
2022-09-06T23:08:12.168Z,75230.44
2022-09-06T23:18:19.255Z,75236.50
2022-09-06T23:28:21.636Z,75252.69
2022-09-06T23:38:24.386Z,75260.78
2022-09-06T23:48:29.209Z,75270.91
2022-09-06T23:58:39.310Z,75270.91
